^^
Grace C. Lehan Memorial Weather Station Historical Data
Daily Summary for May 20, 2022 Units:  English    Metric   Both
Daily Weekly Monthly Yearly
  High: Low: Average:
Temperature: 76.5 °F 51.2 °F 62.4 °F
Dew Point: 64.4 °F 49.8 °F 57.7 °F
Humidity: 96.9% 60.2% 86%
Wind Speed: 1.7mph 0mph 0.1mph
Wind Gust: 11mph - -
Wind- - SSE
Pressure: 29.98 in 29.81 in -
Precipitation: 0.05 in    
 
 
Tabular Data for May 20, 2022
Time Temperature Dew Point Pressure Wind Wind Speed Wind Gust Humidity Rainfall Rate (Hourly) solar
00:09 53.6 °F 51.6 °F 29.81 in Calm     93% 0.00 in 0 W/m2
00:14 53.5 °F 51.6 °F 29.82 in Calm     93.2% 0.00 in 0 W/m2
00:19 53.4 °F 51.7 °F 29.82 in Calm     93.9% 0.00 in 0 W/m2
00:24 53.3 °F 51.4 °F 29.82 in Calm     93.3% 0.00 in 0 W/m2
00:29 53.2 °F 51.2 °F 29.82 in Calm     93% 0.00 in 0 W/m2
00:34 53 °F 51.1 °F 29.82 in Calm     93% 0.00 in 0 W/m2
00:39 52.9 °F 51.1 °F 29.82 in Calm     93.6% 0.00 in 0 W/m2
00:44 52.8 °F 51.1 °F 29.82 in Calm     94% 0.00 in 0 W/m2
00:49 52.7 °F 51 °F 29.82 in Calm     93.9% 0.00 in 0 W/m2
00:54 52.7 °F 51 °F 29.82 in Calm     94% 0.00 in 0 W/m2
00:59 52.7 °F 51 °F 29.83 in Calm     94% 0.00 in 0 W/m2
01:04 52.7 °F 51 °F 29.83 in Calm     94% 0.00 in 0 W/m2
01:09 52.7 °F 51 °F 29.84 in Calm     94% 0.00 in 0 W/m2
01:14 52.7 °F 51 °F 29.84 in Calm     94% 0.00 in 0 W/m2
01:19 52.7 °F 51.1 °F 29.84 in Calm     94% 0.00 in 0 W/m2
01:24 52.8 °F 51.1 °F 29.83 in Calm     94% 0.00 in 0 W/m2
01:29 52.8 °F 51.1 °F 29.83 in Calm     94% 0.00 in 0 W/m2
01:34 52.8 °F 51.1 °F 29.83 in Calm     94% 0.00 in 0 W/m2
01:39 52.8 °F 51.1 °F 29.83 in Calm     94% 0.00 in 0 W/m2
01:44 52.7 °F 51.1 °F 29.83 in Calm     94% 0.00 in 0 W/m2
01:49 52.7 °F 51 °F 29.83 in Calm     94% 0.00 in 0 W/m2
01:54 52.7 °F 51.1 °F 29.83 in Calm     94.4% 0.00 in 0 W/m2
01:59 52.7 °F 51.2 °F 29.83 in Calm     94.5% 0.00 in 0 W/m2
02:04 52.8 °F 51.4 °F 29.83 in Calm     95% 0.00 in 0 W/m2
02:09 52.8 °F 51.4 °F 29.83 in Calm     95% 0.00 in 0 W/m2
02:14 52.8 °F 51.4 °F 29.83 in Calm     95% 0.00 in 0 W/m2
02:19 52.7 °F 51.3 °F 29.84 in Calm     95% 0.00 in 0 W/m2
02:24 52.7 °F 51.3 °F 29.84 in Calm     95% 0.00 in 0 W/m2
02:29 52.7 °F 51.3 °F 29.84 in Calm     95% 0.00 in 0 W/m2
02:34 52.7 °F 51.3 °F 29.84 in Calm     95% 0.00 in 0 W/m2
02:39 52.7 °F 51.3 °F 29.84 in Calm     95% 0.00 in 0 W/m2
02:44 52.7 °F 51.3 °F 29.84 in Calm     95% 0.00 in 0 W/m2
02:49 52.7 °F 51.3 °F 29.84 in Calm     95% 0.00 in 0 W/m2
02:54 52.7 °F 51.3 °F 29.84 in Calm     95% 0.00 in 0 W/m2
02:59 52.7 °F 51.3 °F 29.84 in Calm     95% 0.00 in 0 W/m2
03:04 52.6 °F 51.2 °F 29.84 in Calm     95% 0.00 in 0 W/m2
03:09 52.6 °F 51.2 °F 29.84 in Calm     95% 0.00 in 0 W/m2
03:13 52.6 °F 51.2 °F 29.84 in Calm     95% 0.00 in 0 W/m2
03:19 52.6 °F 51.2 °F 29.84 in Calm     95% 0.00 in 0 W/m2
03:24 52.6 °F 51.2 °F 29.84 in Calm     95% 0.00 in 0 W/m2
03:29 52.6 °F 51.2 °F 29.84 in Calm     95% 0.00 in 0 W/m2
03:34 52.5 °F 51.1 °F 29.84 in Calm     95% 0.00 in 0 W/m2
03:39 52.3 °F 50.9 °F 29.84 in Calm     95% 0.00 in 0 W/m2
03:44 52.2 °F 50.8 °F 29.84 in Calm     95% 0.00 in 0 W/m2
03:49 52.1 °F 50.7 °F 29.84 in Calm     95% 0.00 in 0 W/m2
03:54 52 °F 50.6 °F 29.84 in Calm     95% 0.00 in 0 W/m2
03:59 51.9 °F 50.5 °F 29.84 in Calm     95% 0.00 in 0 W/m2
04:00 51.9 °F 50.5 °F 29.84 in Calm     95% 0.00 in 0 W/m2
04:09 51.9 °F 50.5 °F 29.83 in Calm     95% 0.00 in 0 W/m2
04:14 51.9 °F 50.5 °F 29.84 in Calm   1 mph 95% 0.01 in 0 W/m2
04:19 51.9 °F 50.5 °F 29.84 in WSW 0.1 mph 2 mph 95% 0.01 in 0 W/m2
04:24 51.9 °F 50.5 °F 29.85 in WSW 0.1 mph 3 mph 95% 0.01 in 0 W/m2
04:29 51.9 °F 50.5 °F 29.85 in WSW 0.4 mph 5 mph 95% 0.01 in 0 W/m2
04:34 51.9 °F 50.5 °F 29.85 in WSW 0.1 mph 5 mph 95% 0.01 in 0 W/m2
04:39 51.9 °F 50.5 °F 29.85 in Calm   2 mph 95% 0.01 in 0 W/m2
04:44 51.9 °F 50.5 °F 29.85 in Calm   2 mph 95% 0.01 in 0 W/m2
04:49 51.8 °F 50.4 °F 29.86 in Calm   2 mph 95% 0.01 in 0 W/m2
04:54 51.8 °F 50.4 °F 29.86 in Calm   2 mph 95% 0.01 in 0 W/m2
04:59 51.8 °F 50.4 °F 29.86 in Calm   2 mph 95% 0.01 in 0 W/m2
05:03 51.7 °F 50.3 °F 29.86 in Calm   2 mph 95% 0.01 in 0 W/m2
05:09 51.7 °F 50.3 °F 29.87 in Calm     95% 0.00 in 0 W/m2
05:14 51.6 °F 50.2 °F 29.87 in Calm     95% 0.00 in 0 W/m2
05:19 51.5 °F 50.1 °F 29.87 in Calm     95% 0.00 in 0 W/m2
05:24 51.5 °F 50.1 °F 29.87 in Calm     95% 0.00 in 0 W/m2
05:29 51.4 °F 50 °F 29.87 in Calm     95% 0.00 in 0 W/m2
05:34 51.3 °F 49.9 °F 29.87 in Calm     95% 0.00 in 5 W/m2
05:39 51.2 °F 49.8 °F 29.88 in Calm     95% 0.00 in 9 W/m2
05:44 51.2 °F 49.8 °F 29.88 in Calm     95% 0.00 in 12 W/m2
05:49 51.2 °F 49.8 °F 29.88 in Calm     95% 0.00 in 16 W/m2
05:54 51.2 °F 50 °F 29.88 in Calm     95.5% 0.00 in 16 W/m2
05:59 51.3 °F 50.2 °F 29.89 in Calm     96% 0.00 in 18 W/m2
06:04 51.4 °F 50.3 °F 29.89 in Calm     96% 0.00 in 18 W/m2
06:09 51.5 °F 50.4 °F 29.89 in Calm     96% 0.00 in 32 W/m2
06:13 51.6 °F 50.5 °F 29.90 in Calm     96% 0.00 in 32 W/m2
06:19 51.7 °F 50.6 °F 29.90 in Calm     96% 0.00 in 35 W/m2
06:24 51.9 °F 50.8 °F 29.90 in Calm     96% 0.00 in 47 W/m2
06:29 51.9 °F 50.8 °F 29.91 in Calm     96% 0.00 in 54 W/m2
06:34 52 °F 50.9 °F 29.92 in Calm     96% 0.00 in 81 W/m2
06:39 52.3 °F 51.2 °F 29.92 in Calm     96% 0.00 in 113 W/m2
06:44 52.5 °F 51.4 °F 29.92 in Calm     96% 0.00 in 113 W/m2
06:49 52.7 °F 51.6 °F 29.92 in Calm     96% 0.00 in 77 W/m2
06:54 52.9 °F 51.7 °F 29.92 in Calm     96% 0.00 in 81 W/m2
06:59 53 °F 51.9 °F 29.92 in Calm     96% 0.00 in 88 W/m2
07:04 53.1 °F 52 °F 29.92 in Calm     96% 0.00 in 70 W/m2
07:09 53.2 °F 52.1 °F 29.92 in Calm     96% 0.00 in 58 W/m2
07:14 53.3 °F 52.2 °F 29.93 in Calm     96% 0.00 in 107 W/m2
07:19 53.4 °F 52.2 °F 29.93 in Calm     96% 0.00 in 137 W/m2
07:24 53.6 °F 52.5 °F 29.93 in Calm     96% 0.00 in 153 W/m2
07:29 53.9 °F 52.8 °F 29.93 in Calm     96% 0.00 in 77 W/m2
07:34 53.9 °F 52.8 °F 29.93 in Calm     96% 0.00 in 105 W/m2
07:39 53.8 °F 52.7 °F 29.93 in Calm     96% 0.00 in 172 W/m2
07:44 54 °F 52.9 °F 29.94 in Calm     96% 0.00 in 172 W/m2
07:49 54.2 °F 53.1 °F 29.94 in Calm     96% 0.00 in 116 W/m2
07:54 54.4 °F 53.3 °F 29.95 in Calm     96% 0.00 in 62 W/m2
07:59 54.4 °F 53.3 °F 29.95 in Calm     96% 0.00 in 60 W/m2
08:00 54.4 °F 53.3 °F 29.95 in Calm     96% 0.00 in 54 W/m2
08:09 54.5 °F 53.4 °F 29.95 in Calm     96% 0.00 in 83 W/m2
08:14 54.5 °F 53.4 °F 29.95 in Calm     96% 0.00 in 81 W/m2
08:19 54.5 °F 53.4 °F 29.95 in Calm     96% 0.00 in 65 W/m2
08:24 54.6 °F 53.5 °F 29.96 in Calm     96% 0.00 in 79 W/m2
08:28 54.8 °F 53.7 °F 29.95 in Calm     96% 0.00 in 81 W/m2
08:34 54.8 °F 53.6 °F 29.96 in Calm     96% 0.00 in 104 W/m2
08:35 54.8 °F 53.7 °F 29.96 in Calm     96% 0.00 in 104 W/m2
08:44 55 °F 53.8 °F 29.97 in Calm     96% 0.00 in 146 W/m2
08:49 55.1 °F 54 °F 29.97 in Calm     96% 0.00 in 141 W/m2
08:54 55.4 °F 54.3 °F 29.97 in Calm     96% 0.00 in 156 W/m2
08:59 55.6 °F 54.5 °F 29.97 in Calm     96% 0.00 in 211 W/m2
09:04 55.8 °F 54.7 °F 29.97 in Calm     96% 0.00 in 267 W/m2
09:09 56.2 °F 55 °F 29.96 in Calm     96% 0.00 in 341 W/m2
09:14 56.5 °F 55.3 °F 29.96 in Calm     96% 0.00 in 387 W/m2
09:19 57 °F 56 °F 29.96 in Calm     96.5% 0.00 in 452 W/m2
09:24 57.5 °F 56.6 °F 29.97 in Calm     96.9% 0.00 in 554 W/m2
09:29 57.9 °F 56.9 °F 29.97 in Calm     96.6% 0.00 in 847 W/m2
09:34 58.6 °F 57.7 °F 29.97 in Calm     96.9% 0.00 in 737 W/m2
09:39 59.1 °F 58 °F 29.96 in Calm     96.2% 0.00 in 693 W/m2
09:44 59.9 °F 58.7 °F 29.96 in Calm   1 mph 96% 0.00 in 677 W/m2
09:49 61.2 °F 60 °F 29.97 in Calm   1 mph 96% 0.00 in 735 W/m2
09:54 62.2 °F 60.6 °F 29.97 in Calm   1 mph 94.6% 0.00 in 881 W/m2
09:59 63.3 °F 61 °F 29.97 in Calm   1 mph 92.1% 0.00 in 881 W/m2
10:04 63.8 °F 60.3 °F 29.97 in Calm   1 mph 88.4% 0.00 in 548 W/m2
10:09 64.1 °F 60.2 °F 29.97 in Calm     87.2% 0.00 in 548 W/m2
10:14 64.4 °F 60.2 °F 29.97 in Calm   1 mph 86% 0.00 in 705 W/m2
10:19 65.1 °F 60.8 °F 29.97 in Calm   1 mph 85.9% 0.00 in 802 W/m2
10:24 65.7 °F 60.6 °F 29.97 in Calm   1 mph 83.6% 0.00 in 773 W/m2
10:29 65.9 °F 60.3 °F 29.97 in Calm   1 mph 82% 0.00 in 687 W/m2
10:34 66 °F 60.2 °F 29.98 in Calm   1 mph 81.5% 0.00 in 824 W/m2
10:36 66.1 °F 60.2 °F 29.98 in Calm     81.4% 0.00 in 809 W/m2
11:00 67.1 °F 60.7 °F 29.98 in Calm   4 mph 80% 0.00 in 787 W/m2
11:30 70.2 °F 63 °F 29.97 in Calm   5 mph 78% 0.00 in 826 W/m2
12:04 72.8 °F 62.8 °F 29.96 in Calm     71% 0.00 in 930 W/m2
12:09 72.8 °F 63.2 °F 29.96 in Calm     71.9% 0.00 in 926 W/m2
12:14 73.3 °F 64.4 °F 29.96 in SW 0.3 mph 6 mph 73.6% 0.00 in 884 W/m2
12:19 73.6 °F 63.8 °F 29.96 in SW 0.2 mph 6 mph 71.5% 0.00 in 886 W/m2
12:24 73.9 °F 63.7 °F 29.95 in SW 0.3 mph 6 mph 70.5% 0.00 in 928 W/m2
12:29 74.2 °F 64.4 °F 29.95 in Calm   6 mph 71.4% 0.00 in 933 W/m2
12:34 74.6 °F 64.3 °F 29.96 in Calm   6 mph 70.2% 0.00 in 991 W/m2
12:39 74.7 °F 63.3 °F 29.96 in SSW 0.1 mph 2 mph 67.6% 0.00 in 949 W/m2
12:44 74.7 °F 63.1 °F 29.96 in SSW 0.5 mph 4 mph 67% 0.00 in 993 W/m2
12:49 74.9 °F 63.1 °F 29.95 in ESE 0.5 mph 4 mph 66.7% 0.00 in 1014 W/m2
12:54 75.1 °F 63.4 °F 29.95 in ESE 0.9 mph 8 mph 67% 0.00 in 988 W/m2
12:59 75.3 °F 63.8 °F 29.95 in ESE 0.1 mph 8 mph 67.4% 0.00 in 1053 W/m2
13:04 75.7 °F 64.3 °F 29.95 in ESE 0.1 mph 8 mph 67.7% 0.00 in 1053 W/m2
13:09 76.1 °F 63.6 °F 29.95 in South 0.7 mph 5 mph 65.1% 0.00 in 1042 W/m2
13:14 76.5 °F 63.6 °F 29.95 in SSW 0.6 mph 5 mph 64.4% 0.00 in 1053 W/m2
13:19 76.5 °F 62.3 °F 29.95 in South 0.3 mph 5 mph 61.5% 0.00 in 526 W/m2
13:24 75.9 °F 62 °F 29.95 in South 0.2 mph 5 mph 62% 0.00 in 346 W/m2
13:29 75.6 °F 61.9 °F 29.95 in South 0.2 mph 5 mph 62.5% 0.00 in 330 W/m2
13:34 75.3 °F 62.8 °F 29.95 in Calm   5 mph 65% 0.00 in 336 W/m2
13:39 75.3 °F 63.3 °F 29.95 in Calm   2 mph 66.4% 0.00 in 341 W/m2
13:44 75.2 °F 62.3 °F 29.96 in SSW 0.5 mph 5 mph 64.3% 0.00 in 350 W/m2
13:49 75.2 °F 61.8 °F 29.96 in SW 0.3 mph 5 mph 63.1% 0.00 in 325 W/m2
13:54 75 °F 60.4 °F 29.96 in South 1 mph 6 mph 60.6% 0.00 in 246 W/m2
13:59 74.5 °F 59.8 °F 29.96 in South 1.1 mph 7 mph 60.2% 0.00 in 202 W/m2
14:04 74.1 °F 59.6 °F 29.96 in SSE 0.6 mph 7 mph 60.6% 0.00 in 151 W/m2
14:09 73.6 °F 59.4 °F 29.95 in South 0.5 mph 6 mph 61.1% 0.00 in 120 W/m2
14:14 73.3 °F 59.8 °F 29.95 in South 0.2 mph 6 mph 62.7% 0.00 in 128 W/m2
14:19 72.9 °F 60 °F 29.95 in South 0.5 mph 6 mph 63.8% 0.00 in 192 W/m2
14:24 72.6 °F 59.8 °F 29.95 in South 1.6 mph 7 mph 64.1% 0.00 in 334 W/m2
14:29 72.5 °F 60.3 °F 29.95 in South 1.7 mph 7 mph 65.3% 0.00 in 355 W/m2
14:34 72.6 °F 60.7 °F 29.94 in South 1 mph 7 mph 66.3% 0.00 in 891 W/m2
14:39 72.9 °F 61.1 °F 29.94 in South 1.7 mph 6 mph 66.5% 0.00 in 603 W/m2
14:44 73 °F 61.4 °F 29.94 in South 1.3 mph 6 mph 66.8% 0.00 in 468 W/m2
14:49 73 °F 61.9 °F 29.94 in South 0.6 mph 6 mph 68.2% 0.00 in 309 W/m2
14:54 72.9 °F 62.2 °F 29.94 in South 1.2 mph 7 mph 69.3% 0.00 in 766 W/m2
14:59 73 °F 62.7 °F 29.94 in South 1 mph 7 mph 70% 0.00 in 796 W/m2
15:04 73.2 °F 62.7 °F 29.94 in South 0.9 mph 7 mph 69.9% 0.00 in 575 W/m2
15:09 73.2 °F 63.2 °F 29.94 in South 0.4 mph 6 mph 70.8% 0.00 in 990 W/m2
15:14 73.7 °F 63.7 °F 29.94 in South 0.6 mph 6 mph 70.8% 0.00 in 844 W/m2
15:19 74 °F 63.2 °F 29.93 in South 0.1 mph 6 mph 69.2% 0.00 in 793 W/m2
15:24 74 °F 63.5 °F 29.93 in South 0.2 mph 6 mph 69.6% 0.00 in 773 W/m2
15:29 74.2 °F 63.7 °F 29.93 in South 0.1 mph 6 mph 69.8% 0.00 in 770 W/m2
15:34 74.2 °F 63.6 °F 29.93 in South 0.3 mph 6 mph 69.6% 0.00 in 770 W/m2
15:39 73.9 °F 63.2 °F 29.93 in SE 0.7 mph 10 mph 69.2% 0.00 in 380 W/m2
15:44 73.5 °F 63 °F 29.93 in SE 0.8 mph 10 mph 69.7% 0.00 in 345 W/m2
15:49 73.1 °F 63.2 °F 29.93 in NE 0.2 mph 10 mph 71.2% 0.00 in 912 W/m2
15:54 73 °F 63.4 °F 29.92 in SE 0.6 mph 10 mph 71.7% 0.00 in 912 W/m2
15:59 73.3 °F 63.5 °F 29.92 in SE 0.1 mph 10 mph 71.4% 0.00 in 789 W/m2
16:04 73.7 °F 64.1 °F 29.92 in Calm     72% 0.00 in 682 W/m2
16:09 73.7 °F 63.6 °F 29.92 in SE 0.1 mph 2 mph 70.7% 0.00 in 682 W/m2
16:14 73.6 °F 63.1 °F 29.92 in SSE 0.6 mph 7 mph 69.6% 0.00 in 100 W/m2
16:19 73.3 °F 62.9 °F 29.92 in East 0.3 mph 7 mph 70% 0.00 in 98 W/m2
16:24 73 °F 62.7 °F 29.93 in ESE 0.4 mph 7 mph 70.2% 0.00 in 100 W/m2
16:29 72.6 °F 62.6 °F 29.93 in ESE 0.6 mph 7 mph 70.6% 0.00 in 100 W/m2
16:34 72.4 °F 62.6 °F 29.93 in ESE 0.8 mph 7 mph 71.2% 0.00 in 93 W/m2
16:39 72.3 °F 62.7 °F 29.93 in Calm   3 mph 71.9% 0.00 in 93 W/m2
16:44 72.2 °F 62.9 °F 29.93 in SE 0.1 mph 3 mph 72.5% 0.00 in 88 W/m2
16:49 72.1 °F 62.6 °F 29.93 in SE 0.2 mph 4 mph 72% 0.00 in 121 W/m2
16:54 72 °F 62.6 °F 29.93 in ESE 0.2 mph 5 mph 72.2% 0.00 in 127 W/m2
16:59 72 °F 62.5 °F 29.93 in SE 0.6 mph 5 mph 72% 0.00 in 125 W/m2
17:04 71.8 °F 62.4 °F 29.93 in South 0.4 mph 5 mph 72.1% 0.00 in 98 W/m2
17:09 71.6 °F 62.5 °F 29.93 in SW 0.1 mph 4 mph 73% 0.00 in 135 W/m2
17:14 71.5 °F 62.4 °F 29.93 in ESE 1.2 mph 6 mph 73.2% 0.00 in 151 W/m2
17:19 71.4 °F 62.4 °F 29.94 in Calm   6 mph 73.3% 0.00 in 156 W/m2
17:24 71.5 °F 62.8 °F 29.94 in Calm   6 mph 74.1% 0.00 in 156 W/m2
17:29 71.5 °F 62.8 °F 29.94 in ESE 0.2 mph 6 mph 74% 0.00 in 121 W/m2
17:34 71.3 °F 62.6 °F 29.94 in ESE 0.5 mph 6 mph 74% 0.00 in 102 W/m2
17:39 71 °F 62.5 °F 29.94 in Calm   5 mph 74.6% 0.00 in 104 W/m2
17:44 70.7 °F 62.4 °F 29.94 in SE 0.1 mph 5 mph 75% 0.00 in 104 W/m2
17:49 70.5 °F 62.6 °F 29.94 in SSW 0.1 mph 5 mph 75.9% 0.00 in 95 W/m2
17:54 70.4 °F 62.7 °F 29.94 in Calm   5 mph 76.5% 0.00 in 109 W/m2
17:59 70.3 °F 62.8 °F 29.94 in SE 0.2 mph 5 mph 77% 0.00 in 116 W/m2
18:04 70.2 °F 62.7 °F 29.94 in SE 0.1 mph 5 mph 77.2% 0.00 in 125 W/m2
18:09 70.1 °F 62.9 °F 29.94 in Calm   3 mph 78% 0.00 in 132 W/m2
18:14 70.1 °F 62.9 °F 29.94 in SE 0.2 mph 3 mph 78% 0.00 in 134 W/m2
18:19 69.9 °F 62.7 °F 29.93 in ESE 0.3 mph 5 mph 78% 0.00 in 118 W/m2
18:24 69.7 °F 62.6 °F 29.93 in Calm   5 mph 78.3% 0.00 in 90 W/m2
18:29 69.4 °F 62.6 °F 29.93 in SE 0.2 mph 5 mph 79% 0.00 in 62 W/m2
18:34 69.2 °F 62.6 °F 29.93 in Calm   5 mph 79.5% 0.00 in 58 W/m2
18:39 69.1 °F 62.7 °F 29.93 in Calm     80% 0.00 in 56 W/m2
18:44 68.9 °F 62.5 °F 29.93 in Calm   1 mph 80% 0.00 in 37 W/m2
18:49 68.8 °F 62.4 °F 29.94 in Calm   1 mph 80.1% 0.00 in 33 W/m2
18:54 68.6 °F 62.5 °F 29.94 in Calm   1 mph 81% 0.00 in 21 W/m2
18:59 68.4 °F 62.4 °F 29.94 in Calm   1 mph 81% 0.00 in 21 W/m2
19:04 68.2 °F 62.3 °F 29.94 in Calm   1 mph 81.2% 0.00 in 19 W/m2
19:09 68.1 °F 62.4 °F 29.95 in Calm   1 mph 81.8% 0.00 in 16 W/m2
19:14 68.1 °F 62.4 °F 29.95 in SE 0.1 mph 4 mph 82% 0.00 in 23 W/m2
19:19 68 °F 62.3 °F 29.94 in Calm   4 mph 82% 0.00 in 23 W/m2
19:24 68 °F 62.3 °F 29.94 in SE 0.2 mph 4 mph 82% 0.00 in 23 W/m2
19:29 68 °F 62.3 °F 29.94 in Calm   4 mph 82% 0.00 in 19 W/m2
19:34 67.9 °F 62.2 °F 29.94 in ESE 0.4 mph 11 mph 82% 0.00 in 19 W/m2
19:39 67.8 °F 62.1 °F 29.93 in SSE 0.1 mph 11 mph 82% 0.00 in 18 W/m2
19:44 67.6 °F 62.2 °F 29.93 in Calm   11 mph 82.7% 0.00 in 16 W/m2
19:49 67.5 °F 62.2 °F 29.93 in Calm   11 mph 83% 0.00 in 11 W/m2
19:54 67.4 °F 62.1 °F 29.93 in Calm   11 mph 83% 0.00 in 7 W/m2
19:59 67.3 °F 62 °F 29.93 in Calm   11 mph 83% 0.00 in 0 W/m2
20:00 67.2 °F 61.9 °F 29.93 in Calm   11 mph 83% 0.00 in 0 W/m2
20:09 66.9 °F 61.7 °F 29.93 in Calm     83.3% 0.00 in 0 W/m2
20:13 66.8 °F 61.8 °F 29.93 in Calm     84% 0.00 in 0 W/m2
20:19 66.7 °F 61.7 °F 29.93 in Calm     84% 0.00 in 0 W/m2
20:24 66.5 °F 61.5 °F 29.94 in Calm     84% 0.00 in 0 W/m2
20:29 66.3 °F 61.4 °F 29.95 in Calm     84.2% 0.00 in 0 W/m2
20:34 66.2 °F 61.5 °F 29.95 in ESE 0.1 mph 2 mph 85% 0.00 in 0 W/m2
20:39 66 °F 61.3 °F 29.94 in Calm   2 mph 85% 0.00 in 0 W/m2
20:44 65.8 °F 61.2 °F 29.94 in Calm   2 mph 85.2% 0.00 in 0 W/m2
20:49 65.6 °F 61.4 °F 29.94 in Calm   2 mph 86% 0.00 in 0 W/m2
20:54 65.5 °F 61.3 °F 29.94 in Calm   2 mph 86.3% 0.00 in 0 W/m2
20:59 65.3 °F 61.3 °F 29.94 in Calm   2 mph 87% 0.00 in 0 W/m2
21:04 65.2 °F 61.5 °F 29.94 in Calm   2 mph 87.9% 0.00 in 0 W/m2
21:09 65 °F 61.3 °F 29.95 in Calm     88% 0.00 in 0 W/m2
21:14 64.9 °F 61.3 °F 29.96 in Calm     88.2% 0.00 in 0 W/m2
21:19 64.8 °F 61.5 °F 29.96 in Calm     89% 0.00 in 0 W/m2
21:24 64.7 °F 61.4 °F 29.96 in Calm     89% 0.01 in 0 W/m2
21:29 64.6 °F 61.6 °F 29.95 in Calm     90% 0.01 in 0 W/m2
21:34 64.4 °F 61.4 °F 29.95 in Calm     90% 0.01 in 0 W/m2
21:39 64.3 °F 61.3 °F 29.96 in Calm     90% 0.02 in 0 W/m2
21:44 64.2 °F 61.6 °F 29.96 in Calm     91% 0.02 in 0 W/m2
21:49 64.1 °F 61.4 °F 29.95 in Calm     91% 0.02 in 0 W/m2
21:54 64.1 °F 61.4 °F 29.96 in Calm     91% 0.02 in 0 W/m2
21:59 64 °F 61.4 °F 29.96 in Calm     91.4% 0.02 in 0 W/m2
22:04 64 °F 61.7 °F 29.96 in Calm     92% 0.02 in 0 W/m2
22:09 64 °F 61.6 °F 29.96 in Calm     92% 0.02 in 0 W/m2
22:13 63.9 °F 61.5 °F 29.96 in Calm     92% 0.02 in 0 W/m2
22:19 63.8 °F 61.5 °F 29.96 in Calm     92% 0.03 in 0 W/m2
22:24 63.8 °F 61.4 °F 29.95 in Calm     92% 0.04 in 0 W/m2
22:29 63.7 °F 61.3 °F 29.95 in Calm     92% 0.04 in 0 W/m2
22:34 63.6 °F 61.2 °F 29.95 in Calm     92% 0.04 in 0 W/m2
22:39 63.6 °F 61.5 °F 29.95 in Calm     93% 0.03 in 0 W/m2
22:44 63.5 °F 61.4 °F 29.94 in Calm     93% 0.03 in 0 W/m2
22:49 63.5 °F 61.4 °F 29.95 in Calm     93% 0.03 in 0 W/m2
22:54 63.5 °F 61.4 °F 29.95 in Calm     93% 0.03 in 0 W/m2
22:59 63.5 °F 61.4 °F 29.95 in Calm     93% 0.03 in 0 W/m2
23:04 63.5 °F 61.4 °F 29.95 in Calm     93% 0.03 in 0 W/m2
23:09 63.4 °F 61.4 °F 29.95 in Calm     93% 0.02 in 0 W/m2
23:14 63.4 °F 61.3 °F 29.95 in Calm     93% 0.02 in 0 W/m2
23:19 63.3 °F 61.3 °F 29.95 in Calm     93% 0.02 in 0 W/m2
23:24 63.2 °F 61.2 °F 29.95 in Calm     93% 0.02 in 0 W/m2
23:29 63.2 °F 61.2 °F 29.95 in Calm     93% 0.02 in 0 W/m2
23:34 63.2 °F 61.2 °F 29.95 in Calm     93% 0.02 in 0 W/m2
23:39 63.2 °F 61.5 °F 29.95 in Calm     94% 0.00 in 0 W/m2
23:44 63.2 °F 61.4 °F 29.95 in Calm     94% 0.00 in 0 W/m2
23:49 63.1 °F 61.4 °F 29.95 in Calm     94% 0.00 in 0 W/m2
23:54 63.1 °F 61.3 °F 29.95 in SE 0.1 mph 3 mph 94% 0.00 in 0 W/m2
23:59 63.1 °F 61.3 °F 29.95 in Calm   3 mph 94% 0.00 in 0 W/m2
Hartford County Weather
Compliments of Weather Underground - 2 mb